createdAt,value
2024-02-04T00:00:06.760Z,10.70
2024-02-04T00:02:33.901Z,10.53
2024-02-04T00:05:00.555Z,8.50
2024-02-04T00:07:28.127Z,9.23
2024-02-04T00:09:54.803Z,9.00
2024-02-04T00:12:21.714Z,8.07
2024-02-04T00:14:50.750Z,8.80
2024-02-04T00:17:17.819Z,6.77
2024-02-04T00:19:44.854Z,6.50
2024-02-04T00:22:11.604Z,10.83
2024-02-04T00:24:38.327Z,6.90
2024-02-04T00:27:05.197Z,6.80
2024-02-04T00:29:31.650Z,6.40
2024-02-04T00:31:58.113Z,5.80
2024-02-04T00:34:24.713Z,5.50
2024-02-04T00:36:51.304Z,7.67
2024-02-04T00:39:17.834Z,5.70
2024-02-04T00:41:44.458Z,7.23
2024-02-04T00:44:11.106Z,6.60
2024-02-04T00:46:37.597Z,7.80
2024-02-04T00:49:04.364Z,7.43
2024-02-04T00:51:31.416Z,7.43
2024-02-04T00:53:58.061Z,8.37
2024-02-04T00:56:24.775Z,7.87
2024-02-04T00:58:51.324Z,7.40
2024-02-04T01:01:18.438Z,10.80
2024-02-04T01:03:45.239Z,8.70
2024-02-04T01:06:11.999Z,8.90
2024-02-04T01:08:38.866Z,8.90
2024-02-04T01:11:06.819Z,9.20
2024-02-04T01:13:33.695Z,9.83
2024-02-04T01:16:00.311Z,8.27
2024-02-04T01:18:26.989Z,9.03
2024-02-04T01:20:53.547Z,9.43
2024-02-04T01:23:20.919Z,8.50
2024-02-04T01:25:47.467Z,8.10
2024-02-04T01:28:14.004Z,9.53
2024-02-04T01:30:40.613Z,8.30
2024-02-04T01:33:07.202Z,10.13
2024-02-04T01:35:33.728Z,8.00
2024-02-04T01:38:00.225Z,7.73
2024-02-04T01:40:27.349Z,8.20
2024-02-04T01:42:53.953Z,8.47
2024-02-04T01:45:20.457Z,9.87
2024-02-04T01:47:47.065Z,8.10
2024-02-04T01:50:13.796Z,8.40
2024-02-04T01:52:43.238Z,8.03
2024-02-04T01:55:10.573Z,10.97
2024-02-04T01:57:37.430Z,8.17
2024-02-04T02:00:10.163Z,8.77
2024-02-04T02:02:41.043Z,13.17
2024-02-04T02:05:09.554Z,10.53
2024-02-04T02:07:36.381Z,8.90
2024-02-04T02:10:03.067Z,8.13
2024-02-04T02:12:47.236Z,8.97
2024-02-04T02:15:28.708Z,8.60
2024-02-04T02:18:08.477Z,8.40
2024-02-04T02:21:06.965Z,10.40
2024-02-04T02:23:50.209Z,8.37
2024-02-04T02:26:18.134Z,9.00
2024-02-04T02:28:44.640Z,9.00
2024-02-04T02:31:11.861Z,9.67
2024-02-04T02:33:38.551Z,8.97
2024-02-04T02:36:14.170Z,8.40
2024-02-04T02:39:04.548Z,9.97
2024-02-04T02:41:32.046Z,8.17
2024-02-04T02:44:01.289Z,10.70
2024-02-04T02:46:28.800Z,9.27
2024-02-04T02:48:55.421Z,10.97
2024-02-04T02:51:22.003Z,10.17
2024-02-04T02:53:48.484Z,10.03
2024-02-04T02:56:15.202Z,9.80
2024-02-04T02:58:41.685Z,8.50
2024-02-04T03:01:08.415Z,9.10
2024-02-04T03:03:35.435Z,10.53
2024-02-04T03:06:02.063Z,8.10
2024-02-04T03:08:28.646Z,9.53
2024-02-04T03:10:55.169Z,11.03
2024-02-04T03:13:21.760Z,8.47
2024-02-04T03:15:48.444Z,10.17
2024-02-04T03:18:14.983Z,10.50
2024-02-04T03:20:41.572Z,8.87
2024-02-04T03:23:08.202Z,9.70
2024-02-04T03:25:34.761Z,9.27
2024-02-04T03:28:01.375Z,10.57
2024-02-04T03:30:28.057Z,9.50
2024-02-04T03:32:55.030Z,9.10
2024-02-04T03:35:21.641Z,12.57
2024-02-04T03:37:48.181Z,13.30
2024-02-04T03:40:14.854Z,11.00
2024-02-04T03:42:41.858Z,8.80
2024-02-04T03:45:08.776Z,8.07
2024-02-04T03:47:35.317Z,8.50
2024-02-04T03:50:02.033Z,8.60
2024-02-04T03:52:28.678Z,11.70
2024-02-04T03:54:55.170Z,10.10
2024-02-04T03:57:21.731Z,9.87
2024-02-04T03:59:48.340Z,9.83
2024-02-04T04:02:14.900Z,11.10
2024-02-04T04:04:48.788Z,11.40
2024-02-04T04:07:15.674Z,10.80
2024-02-04T04:09:42.308Z,14.23
2024-02-04T04:12:08.938Z,13.43
2024-02-04T04:14:35.452Z,13.63
2024-02-04T04:17:01.929Z,12.80
2024-02-04T04:19:28.737Z,13.13
2024-02-04T04:21:55.670Z,15.20
2024-02-04T04:24:23.467Z,15.00
2024-02-04T04:26:50.086Z,16.10
2024-02-04T04:29:16.591Z,14.83
2024-02-04T04:31:43.099Z,14.23
2024-02-04T04:34:09.820Z,15.00
2024-02-04T04:36:36.445Z,17.33
2024-02-04T04:39:03.169Z,16.10
2024-02-04T04:41:29.751Z,16.47
2024-02-04T04:43:56.336Z,16.87
2024-02-04T04:46:22.853Z,18.37
2024-02-04T04:48:49.553Z,19.80
2024-02-04T04:51:16.235Z,18.47
2024-02-04T04:53:42.800Z,17.70
2024-02-04T04:56:09.333Z,18.73
2024-02-04T04:58:38.727Z,17.30
2024-02-04T05:01:06.808Z,18.80
2024-02-04T05:03:33.832Z,18.47
2024-02-04T05:06:02.152Z,20.30
2024-02-04T05:08:28.723Z,20.03
2024-02-04T05:10:55.195Z,21.20
2024-02-04T05:13:21.767Z,19.80
2024-02-04T05:15:48.506Z,20.33
2024-02-04T05:18:15.189Z,22.53
2024-02-04T05:20:41.841Z,20.03
2024-02-04T05:23:08.990Z,26.30
2024-02-04T05:25:35.559Z,25.47
2024-02-04T05:28:02.133Z,20.67
2024-02-04T05:30:28.682Z,18.10
2024-02-04T05:32:55.235Z,24.60
2024-02-04T05:35:21.853Z,17.33
2024-02-04T05:37:48.374Z,25.30
2024-02-04T05:40:16.655Z,18.97
2024-02-04T05:42:43.747Z,22.00
2024-02-04T05:45:10.401Z,18.33
2024-02-04T05:47:37.027Z,23.40
2024-02-04T05:50:03.907Z,20.97
2024-02-04T05:52:30.507Z,20.93
2024-02-04T05:54:57.111Z,21.47
2024-02-04T05:57:23.757Z,23.20
2024-02-04T05:59:53.767Z,23.30
2024-02-04T06:02:20.326Z,22.70
2024-02-04T06:04:48.108Z,21.80
2024-02-04T06:07:14.683Z,23.30
2024-02-04T06:09:41.315Z,23.33
2024-02-04T06:12:08.257Z,18.30
2024-02-04T06:14:36.010Z,23.10
2024-02-04T06:17:02.558Z,19.30
2024-02-04T06:19:29.223Z,25.93
2024-02-04T06:21:55.817Z,20.60
2024-02-04T06:24:22.510Z,21.50
2024-02-04T06:26:49.027Z,20.77
2024-02-04T06:29:15.556Z,21.00
2024-02-04T06:31:45.855Z,20.83
2024-02-04T06:34:12.603Z,20.17
2024-02-04T06:36:39.695Z,26.23
2024-02-04T06:39:08.237Z,17.97
2024-02-04T06:41:35.780Z,19.60
2024-02-04T06:44:05.351Z,21.40
2024-02-04T06:46:31.959Z,19.37
2024-02-04T06:48:58.908Z,18.83
2024-02-04T06:51:25.496Z,19.67
2024-02-04T06:53:52.096Z,19.17
2024-02-04T06:56:18.664Z,17.47
2024-02-04T06:58:45.226Z,18.47
2024-02-04T07:01:12.916Z,17.07
2024-02-04T07:03:39.742Z,19.90
2024-02-04T07:06:06.822Z,17.40
2024-02-04T07:08:33.393Z,17.83
2024-02-04T07:11:00.679Z,16.63
2024-02-04T07:13:27.457Z,16.27
2024-02-04T07:15:55.535Z,13.57
2024-02-04T07:18:23.298Z,15.33
2024-02-04T07:20:50.140Z,15.37
2024-02-04T07:23:16.726Z,12.70
2024-02-04T07:25:43.304Z,12.60
2024-02-04T07:28:10.239Z,11.73
2024-02-04T07:30:36.858Z,10.07
2024-02-04T07:33:03.602Z,13.33
2024-02-04T07:35:30.254Z,11.63
2024-02-04T07:37:56.789Z,11.33
2024-02-04T07:40:23.359Z,10.23
2024-02-04T07:42:50.039Z,11.93
2024-02-04T07:45:16.826Z,9.40
2024-02-04T07:47:43.360Z,10.83
2024-02-04T07:50:10.208Z,11.23
2024-02-04T07:52:36.925Z,9.50
2024-02-04T07:55:03.527Z,10.57
2024-02-04T07:57:30.196Z,8.00
2024-02-04T07:59:56.922Z,9.50
2024-02-04T08:02:23.514Z,10.07
2024-02-04T08:04:50.152Z,7.80
2024-02-04T08:07:18.669Z,8.00
2024-02-04T08:09:46.553Z,9.00
2024-02-04T08:12:13.139Z,11.27
2024-02-04T08:14:39.738Z,7.70
2024-02-04T08:17:06.261Z,10.00
2024-02-04T08:19:32.958Z,10.10
2024-02-04T08:21:59.925Z,9.70
2024-02-04T08:24:26.557Z,9.13
2024-02-04T08:26:54.134Z,10.10
2024-02-04T08:29:20.604Z,10.67
2024-02-04T08:31:47.133Z,11.87
2024-02-04T08:34:13.735Z,10.23
2024-02-04T08:36:40.370Z,8.90
2024-02-04T08:39:06.941Z,9.13
2024-02-04T08:41:33.447Z,14.50
2024-02-04T08:44:03.137Z,9.63
2024-02-04T08:46:30.914Z,8.40
2024-02-04T08:48:57.593Z,8.67
2024-02-04T08:51:24.170Z,7.17
2024-02-04T08:53:50.708Z,7.87
2024-02-04T08:56:17.233Z,8.90
2024-02-04T08:58:44.803Z,9.33
2024-02-04T09:01:11.442Z,8.77
2024-02-04T09:03:38.303Z,12.63
2024-02-04T09:06:05.458Z,9.80
2024-02-04T09:08:32.042Z,10.30
2024-02-04T09:10:58.671Z,14.07
2024-02-04T09:13:25.230Z,12.73
2024-02-04T09:15:52.249Z,8.90
2024-02-04T09:18:18.860Z,9.90
2024-02-04T09:20:46.222Z,10.23
2024-02-04T09:23:13.231Z,9.97
2024-02-04T09:25:40.164Z,12.53
2024-02-04T09:28:06.901Z,11.63
2024-02-04T09:30:33.518Z,9.93
2024-02-04T09:33:00.371Z,8.40
2024-02-04T09:35:27.602Z,8.60
2024-02-04T09:37:54.280Z,9.73
2024-02-04T09:40:21.107Z,9.97
2024-02-04T09:42:47.832Z,10.10
2024-02-04T09:45:16.069Z,9.27
2024-02-04T09:47:44.969Z,10.03
2024-02-04T09:50:11.847Z,11.23
2024-02-04T09:52:44.449Z,9.87
2024-02-04T09:55:14.162Z,9.27
2024-02-04T09:57:40.771Z,9.53
2024-02-04T10:00:09.593Z,9.80
2024-02-04T10:02:37.104Z,10.37
2024-02-04T10:05:04.866Z,12.27
2024-02-04T10:07:32.043Z,9.93
2024-02-04T10:09:58.738Z,13.50
2024-02-04T10:12:25.343Z,10.57
2024-02-04T10:14:51.833Z,11.40
2024-02-04T10:17:18.370Z,10.57
2024-02-04T10:19:45.031Z,10.10
2024-02-04T10:22:11.982Z,9.80
2024-02-04T10:24:38.673Z,10.57
2024-02-04T10:27:05.464Z,11.00
2024-02-04T10:29:32.108Z,11.53
2024-02-04T10:31:59.115Z,13.03
2024-02-04T10:34:30.997Z,14.30
2024-02-04T10:36:58.374Z,10.37
2024-02-04T10:39:24.975Z,9.87
2024-02-04T10:41:53.653Z,14.47
2024-02-04T10:44:25.185Z,14.50
2024-02-04T10:46:52.946Z,12.13
2024-02-04T10:49:20.940Z,14.80
2024-02-04T10:51:48.493Z,11.83
2024-02-04T10:54:22.050Z,9.90
2024-02-04T10:56:56.912Z,12.20
2024-02-04T10:59:24.164Z,10.20
2024-02-04T11:01:51.383Z,24.00
2024-02-04T11:04:19.540Z,11.60
2024-02-04T11:06:46.747Z,12.10
2024-02-04T11:09:15.634Z,12.27
2024-02-04T11:11:43.253Z,13.23
2024-02-04T11:14:13.618Z,15.20
2024-02-04T11:16:46.228Z,16.00
2024-02-04T11:19:40.817Z,11.73
2024-02-04T11:22:16.419Z,16.30
2024-02-04T11:25:04.313Z,13.03
2024-02-04T11:27:31.536Z,18.27
2024-02-04T11:29:58.357Z,15.37
2024-02-04T11:32:26.682Z,23.70
2024-02-04T11:34:56.427Z,12.80
2024-02-04T11:37:25.565Z,13.30
2024-02-04T11:39:53.506Z,12.17
2024-02-04T11:42:21.553Z,11.83
2024-02-04T11:44:48.261Z,11.87
2024-02-04T11:47:25.823Z,13.90
2024-02-04T11:49:59.893Z,10.07
2024-02-04T11:52:29.861Z,10.10
2024-02-04T11:54:57.002Z,11.57
2024-02-04T11:57:24.633Z,11.20
2024-02-04T11:59:53.588Z,10.13
2024-02-04T12:02:21.328Z,10.60
2024-02-04T12:04:49.542Z,11.53
2024-02-04T12:07:16.920Z,14.47
2024-02-04T12:09:44.186Z,11.20
2024-02-04T12:12:10.793Z,9.73
2024-02-04T12:14:37.901Z,9.67
2024-02-04T12:17:11.722Z,13.67
2024-02-04T12:19:43.979Z,10.80
2024-02-04T12:22:12.152Z,11.60
2024-02-04T12:24:40.137Z,11.63
2024-02-04T12:27:07.056Z,11.93
2024-02-04T12:29:33.828Z,12.67
2024-02-04T12:32:01.497Z,11.77
2024-02-04T12:34:28.533Z,8.63
2024-02-04T12:37:00.433Z,11.03
2024-02-04T12:39:27.573Z,10.60
2024-02-04T12:41:54.669Z,12.63
2024-02-04T12:44:21.379Z,11.73
2024-02-04T12:46:52.830Z,11.13
2024-02-04T12:49:22.474Z,8.90
2024-02-04T12:51:49.636Z,11.77
2024-02-04T12:54:16.560Z,9.67
2024-02-04T12:56:46.495Z,7.37
2024-02-04T12:59:24.612Z,10.37
2024-02-04T13:02:07.297Z,10.70
2024-02-04T13:04:38.868Z,10.53
2024-02-04T13:07:18.487Z,7.47
2024-02-04T13:09:48.184Z,7.43
2024-02-04T13:12:16.851Z,9.13
2024-02-04T13:14:43.755Z,7.00
2024-02-04T13:17:10.884Z,8.93
2024-02-04T13:19:39.509Z,7.00
2024-02-04T13:22:15.791Z,10.30
2024-02-04T13:24:42.714Z,7.93
2024-02-04T13:27:09.406Z,9.17
2024-02-04T13:29:36.482Z,9.33
2024-02-04T13:32:03.174Z,8.77
2024-02-04T13:34:29.855Z,10.97
2024-02-04T13:36:56.814Z,9.47
2024-02-04T13:39:23.656Z,13.00
2024-02-04T13:41:50.249Z,8.97
2024-02-04T13:44:16.898Z,11.83
2024-02-04T13:46:44.253Z,12.27
2024-02-04T13:49:13.529Z,13.90
2024-02-04T13:51:44.698Z,10.00
2024-02-04T13:54:16.879Z,10.77
2024-02-04T13:56:44.385Z,11.27
2024-02-04T13:59:11.068Z,11.03
2024-02-04T14:01:37.653Z,13.17
2024-02-04T14:04:04.445Z,10.67
2024-02-04T14:06:31.071Z,9.50
2024-02-04T14:08:57.577Z,13.97
2024-02-04T14:11:24.104Z,13.23
2024-02-04T14:13:50.640Z,11.03
2024-02-04T14:16:17.451Z,12.53
2024-02-04T14:18:47.334Z,12.93
2024-02-04T14:21:16.786Z,12.60
2024-02-04T14:23:44.191Z,9.10
2024-02-04T14:26:21.291Z,11.23
2024-02-04T14:28:48.060Z,12.07
2024-02-04T14:31:14.913Z,13.73
2024-02-04T14:33:42.581Z,10.80
2024-02-04T14:36:09.743Z,11.90
2024-02-04T14:38:38.846Z,15.23
2024-02-04T14:41:05.917Z,9.50
2024-02-04T14:43:32.503Z,10.53
2024-02-04T14:45:59.854Z,10.60
2024-02-04T14:48:26.758Z,15.20
2024-02-04T14:50:54.369Z,14.10
2024-02-04T14:53:21.270Z,10.00
2024-02-04T14:55:47.899Z,9.30
2024-02-04T14:58:14.540Z,14.13
2024-02-04T15:00:41.274Z,9.63
2024-02-04T15:03:08.200Z,9.30
2024-02-04T15:05:34.672Z,10.33
2024-02-04T15:08:01.667Z,9.93
2024-02-04T15:10:28.260Z,8.80
2024-02-04T15:12:55.260Z,9.57
2024-02-04T15:15:22.370Z,12.40
2024-02-04T15:17:49.156Z,8.27
2024-02-04T15:20:19.481Z,7.77
2024-02-04T15:22:46.662Z,9.20
2024-02-04T15:25:16.115Z,8.30
2024-02-04T15:27:45.193Z,9.80
2024-02-04T15:30:15.292Z,12.40
2024-02-04T15:32:42.196Z,7.77
2024-02-04T15:35:09.344Z,8.20
2024-02-04T15:37:36.580Z,7.80
2024-02-04T15:40:03.293Z,7.70
2024-02-04T15:42:29.848Z,12.03
2024-02-04T15:44:56.372Z,6.73
2024-02-04T15:47:24.630Z,11.93
2024-02-04T15:49:51.611Z,13.00
2024-02-04T15:52:18.394Z,7.47
2024-02-04T15:54:45.295Z,10.10
2024-02-04T15:57:16.108Z,7.03
2024-02-04T15:59:56.152Z,9.47
2024-02-04T16:02:22.937Z,9.97
2024-02-04T16:04:52.207Z,6.17
2024-02-04T16:07:21.329Z,7.57
2024-02-04T16:09:49.717Z,8.73
2024-02-04T16:12:20.865Z,7.83
2024-02-04T16:14:50.284Z,7.70
2024-02-04T16:17:19.491Z,9.60
2024-02-04T16:19:46.687Z,8.23
2024-02-04T16:22:15.720Z,8.70
2024-02-04T16:24:46.112Z,7.50
2024-02-04T16:27:12.777Z,6.73
2024-02-04T16:29:39.332Z,7.93
2024-02-04T16:32:05.917Z,6.73
2024-02-04T16:34:34.862Z,7.90
2024-02-04T16:37:03.540Z,6.30
2024-02-04T16:39:30.517Z,6.90
2024-02-04T16:41:57.171Z,6.70
2024-02-04T16:44:24.073Z,7.37
2024-02-04T16:46:53.910Z,6.70
2024-02-04T16:49:21.387Z,7.17
2024-02-04T16:51:48.832Z,10.83
2024-02-04T16:54:19.146Z,9.73
2024-02-04T16:56:49.831Z,6.60
2024-02-04T16:59:16.600Z,7.00
2024-02-04T17:04:10.427Z,7.37
2024-02-04T17:06:37.380Z,9.97
2024-02-04T17:09:15.394Z,6.57
2024-02-04T17:11:44.274Z,9.30
2024-02-04T17:14:15.158Z,7.83
2024-02-04T17:16:41.788Z,12.30
2024-02-04T17:19:23.629Z,10.43
2024-02-04T17:21:56.908Z,8.53
2024-02-04T17:24:29.564Z,9.83
2024-02-04T17:26:57.546Z,8.90
2024-02-04T17:29:24.626Z,8.43
2024-02-04T17:31:51.397Z,7.77
2024-02-04T17:34:18.354Z,9.73
2024-02-04T17:36:45.048Z,11.00
2024-02-04T17:39:13.142Z,7.97
2024-02-04T17:41:40.720Z,8.87
2024-02-04T17:44:07.448Z,11.30
2024-02-04T17:46:34.093Z,8.23
2024-02-04T17:49:00.812Z,8.47
2024-02-04T17:51:29.659Z,11.20
2024-02-04T17:53:59.020Z,8.80
2024-02-04T17:56:25.550Z,8.03
2024-02-04T17:58:53.489Z,12.70
2024-02-04T18:01:24.079Z,9.10
2024-02-04T18:03:51.236Z,16.00
2024-02-04T18:06:17.996Z,7.80
2024-02-04T18:08:44.487Z,10.63
2024-02-04T18:11:21.457Z,11.77
2024-02-04T18:13:48.811Z,7.93
2024-02-04T18:16:15.523Z,11.63
2024-02-04T18:18:44.135Z,11.43
2024-02-04T18:21:21.805Z,10.40
2024-02-04T18:23:49.374Z,11.27
2024-02-04T18:26:27.384Z,12.73
2024-02-04T18:28:59.128Z,11.77
2024-02-04T18:31:30.283Z,11.20
2024-02-04T18:33:57.978Z,9.57
2024-02-04T18:36:25.565Z,12.10
2024-02-04T18:38:53.770Z,13.67
2024-02-04T18:41:21.272Z,11.60
2024-02-04T18:43:48.852Z,10.47
2024-02-04T18:46:16.408Z,15.43
2024-02-04T18:48:44.450Z,11.73
2024-02-04T18:51:11.206Z,11.70
2024-02-04T18:53:38.333Z,12.97
2024-02-04T18:56:10.158Z,9.63
2024-02-04T18:58:36.733Z,12.37
2024-02-04T19:01:04.284Z,11.87
2024-02-04T19:03:31.138Z,14.43
2024-02-04T19:05:57.904Z,15.43
2024-02-04T19:08:27.161Z,12.13
2024-02-04T19:10:54.047Z,11.33
2024-02-04T19:13:20.947Z,12.00
2024-02-04T19:15:47.622Z,11.90
2024-02-04T19:18:14.408Z,12.90
2024-02-04T19:20:41.391Z,15.47
2024-02-04T19:23:08.338Z,12.53
2024-02-04T19:25:34.931Z,13.10
2024-02-04T19:28:03.281Z,16.30
2024-02-04T19:30:30.304Z,8.13
2024-02-04T19:32:57.011Z,10.13
2024-02-04T19:35:28.511Z,13.43
2024-02-04T19:37:56.106Z,8.50
2024-02-04T19:40:23.548Z,15.17
2024-02-04T19:42:54.441Z,10.10
2024-02-04T19:45:21.421Z,9.93
2024-02-04T19:47:49.449Z,7.77
2024-02-04T19:50:16.724Z,13.40
2024-02-04T19:52:45.542Z,9.70
2024-02-04T19:55:13.653Z,18.50
2024-02-04T19:57:40.489Z,12.40
2024-02-04T20:00:09.648Z,13.13
2024-02-04T20:02:36.842Z,9.80
2024-02-04T20:05:03.677Z,9.00
2024-02-04T20:07:31.015Z,10.03
2024-02-04T20:09:58.884Z,8.90
2024-02-04T20:12:28.596Z,8.77
2024-02-04T20:14:55.278Z,8.73
2024-02-04T20:17:21.965Z,10.03
2024-02-04T20:19:48.650Z,9.40
2024-02-04T20:22:16.184Z,8.23
2024-02-04T20:24:43.256Z,12.37
2024-02-04T20:27:10.382Z,7.60
2024-02-04T20:29:37.033Z,10.30
2024-02-04T20:32:04.543Z,7.80
2024-02-04T20:34:31.213Z,6.50
2024-02-04T20:36:58.350Z,8.53
2024-02-04T20:39:25.805Z,7.47
2024-02-04T20:41:59.097Z,11.33
2024-02-04T20:44:28.445Z,10.90
2024-02-04T20:46:55.396Z,9.73
2024-02-04T20:49:22.170Z,7.50
2024-02-04T20:51:48.764Z,7.23
2024-02-04T20:54:15.531Z,8.50
2024-02-04T20:56:45.054Z,13.60
2024-02-04T20:59:13.161Z,6.13
2024-02-04T21:01:40.162Z,6.97
2024-02-04T21:04:06.968Z,6.90
2024-02-04T21:06:36.237Z,6.50
2024-02-04T21:09:04.902Z,7.07
2024-02-04T21:11:31.748Z,6.40
2024-02-04T21:13:59.482Z,9.30
2024-02-04T21:16:26.556Z,6.10
2024-02-04T21:18:53.373Z,7.40
2024-02-04T21:21:20.184Z,6.50
2024-02-04T21:23:46.879Z,9.40
2024-02-04T21:26:13.454Z,9.80
2024-02-04T21:28:40.863Z,8.37
2024-02-04T21:31:08.758Z,5.83
2024-02-04T21:33:39.164Z,7.83
2024-02-04T21:36:12.649Z,7.33
2024-02-04T21:38:43.093Z,5.70
2024-02-04T21:41:09.674Z,6.50
2024-02-04T21:43:36.306Z,5.70
2024-02-04T21:46:03.737Z,8.43
2024-02-04T21:48:30.615Z,8.27
2024-02-04T21:50:57.262Z,8.07
2024-02-04T21:53:23.818Z,6.97
2024-02-04T21:55:50.393Z,6.40
2024-02-04T21:58:17.995Z,6.07
2024-02-04T22:00:44.827Z,12.00
2024-02-04T22:03:11.580Z,9.80
2024-02-04T22:05:39.357Z,7.53
2024-02-04T22:08:06.840Z,6.77
2024-02-04T22:10:34.342Z,5.73
2024-02-04T22:13:01.336Z,7.70
2024-02-04T22:15:28.146Z,8.53
2024-02-04T22:17:56.682Z,5.60
2024-02-04T22:20:24.135Z,6.20
2024-02-04T22:22:50.835Z,6.80
2024-02-04T22:25:17.478Z,12.50
2024-02-04T22:27:44.065Z,9.90
2024-02-04T22:30:11.483Z,8.00
2024-02-04T22:32:38.032Z,8.50
2024-02-04T22:35:05.556Z,10.97
2024-02-04T22:37:32.404Z,8.03
2024-02-04T22:39:59.002Z,11.10
2024-02-04T22:42:25.679Z,8.13
2024-02-04T22:44:52.189Z,10.23
2024-02-04T22:47:19.245Z,10.77
2024-02-04T22:49:46.087Z,9.30
2024-02-04T22:52:12.749Z,8.60
2024-02-04T22:54:39.354Z,8.20
2024-02-04T22:57:06.056Z,11.10
2024-02-04T22:59:32.958Z,15.40
2024-02-04T23:01:59.721Z,9.80
2024-02-04T23:04:26.470Z,12.87
2024-02-04T23:06:53.159Z,14.93
2024-02-04T23:09:19.709Z,14.27
2024-02-04T23:11:46.264Z,15.67
2024-02-04T23:14:12.794Z,12.57
2024-02-04T23:16:39.306Z,11.77
2024-02-04T23:19:06.051Z,14.13
2024-02-04T23:21:32.751Z,11.80
2024-02-04T23:23:59.379Z,10.13
2024-02-04T23:26:25.850Z,12.83
2024-02-04T23:28:52.365Z,12.20
2024-02-04T23:31:19.157Z,18.80
2024-02-04T23:33:46.943Z,15.63
2024-02-04T23:36:14.163Z,15.93
2024-02-04T23:38:40.806Z,14.00
2024-02-04T23:41:08.265Z,14.33
2024-02-04T23:43:34.902Z,20.97
2024-02-04T23:46:02.271Z,19.00
2024-02-04T23:48:29.677Z,14.20
2024-02-04T23:50:56.494Z,13.17
2024-02-04T23:53:23.004Z,25.13
2024-02-04T23:55:49.702Z,11.60
2024-02-04T23:58:16.425Z,18.47
